sensor_id;sensor_type;location;lat;lon;timestamp;P1;durP1;ratioP1;P2;durP2;ratioP2
40849;SDS011;26571;41.610;25.380;2023-05-10T00:02:22;1.77;;;0.90;;
40849;SDS011;26571;41.610;25.380;2023-05-10T00:04:47;7.72;;;0.88;;
40849;SDS011;26571;41.610;25.380;2023-05-10T00:07:13;3.15;;;2.17;;
40849;SDS011;26571;41.610;25.380;2023-05-10T00:09:38;2.13;;;1.65;;
40849;SDS011;26571;41.610;25.380;2023-05-10T00:12:05;6.35;;;2.03;;
40849;SDS011;26571;41.610;25.380;2023-05-10T00:14:30;1.30;;;1.20;;
40849;SDS011;26571;41.610;25.380;2023-05-10T00:16:56;2.63;;;1.08;;
40849;SDS011;26571;41.610;25.380;2023-05-10T00:19:21;4.78;;;1.15;;
40849;SDS011;26571;41.610;25.380;2023-05-10T00:21:46;2.35;;;1.10;;
40849;SDS011;26571;41.610;25.380;2023-05-10T00:24:12;1.20;;;1.13;;
40849;SDS011;26571;41.610;25.380;2023-05-10T00:26:37;3.60;;;1.20;;
40849;SDS011;26571;41.610;25.380;2023-05-10T00:29:02;2.65;;;1.10;;
40849;SDS011;26571;41.610;25.380;2023-05-10T00:31:28;1.48;;;0.75;;
40849;SDS011;26571;41.610;25.380;2023-05-10T00:33:54;3.60;;;1.17;;
40849;SDS011;26571;41.610;25.380;2023-05-10T00:36:19;2.25;;;0.90;;
40849;SDS011;26571;41.610;25.380;2023-05-10T00:38:45;4.18;;;1.17;;
40849;SDS011;26571;41.610;25.380;2023-05-10T00:41:11;1.10;;;0.80;;
40849;SDS011;26571;41.610;25.380;2023-05-10T00:43:36;4.28;;;1.17;;
40849;SDS011;26571;41.610;25.380;2023-05-10T00:46:02;3.60;;;1.08;;
40849;SDS011;26571;41.610;25.380;2023-05-10T00:48:28;3.40;;;0.82;;
40849;SDS011;26571;41.610;25.380;2023-05-10T00:50:54;2.60;;;0.90;;
40849;SDS011;26571;41.610;25.380;2023-05-10T00:53:20;2.58;;;1.05;;
40849;SDS011;26571;41.610;25.380;2023-05-10T00:55:46;4.38;;;1.10;;
40849;SDS011;26571;41.610;25.380;2023-05-10T00:58:12;5.18;;;2.15;;
40849;SDS011;26571;41.610;25.380;2023-05-10T01:00:37;3.75;;;1.20;;
40849;SDS011;26571;41.610;25.380;2023-05-10T01:03:06;1.90;;;1.50;;
40849;SDS011;26571;41.610;25.380;2023-05-10T01:05:31;2.92;;;1.75;;
40849;SDS011;26571;41.610;25.380;2023-05-10T01:07:57;1.23;;;1.13;;
40849;SDS011;26571;41.610;25.380;2023-05-10T01:10:22;2.03;;;1.25;;
40849;SDS011;26571;41.610;25.380;2023-05-10T01:12:48;1.63;;;1.33;;
40849;SDS011;26571;41.610;25.380;2023-05-10T01:15:14;3.85;;;1.33;;
40849;SDS011;26571;41.610;25.380;2023-05-10T01:17:42;6.55;;;1.38;;
40849;SDS011;26571;41.610;25.380;2023-05-10T01:20:10;1.63;;;1.30;;
40849;SDS011;26571;41.610;25.380;2023-05-10T01:25:32;3.92;;;1.08;;
40849;SDS011;26571;41.610;25.380;2023-05-10T01:34:00;4.25;;;2.67;;
40849;SDS011;26571;41.610;25.380;2023-05-10T01:36:32;4.85;;;2.38;;
40849;SDS011;26571;41.610;25.380;2023-05-10T01:39:08;4.72;;;3.47;;
40849;SDS011;26571;41.610;25.380;2023-05-10T01:41:39;3.45;;;2.08;;
40849;SDS011;26571;41.610;25.380;2023-05-10T01:46:44;3.28;;;2.22;;
40849;SDS011;26571;41.610;25.380;2023-05-10T01:49:17;3.40;;;2.38;;
40849;SDS011;26571;41.610;25.380;2023-05-10T01:51:50;2.63;;;2.42;;
40849;SDS011;26571;41.610;25.380;2023-05-10T01:54:20;6.07;;;2.45;;
40849;SDS011;26571;41.610;25.380;2023-05-10T01:56:47;5.43;;;2.97;;
40849;SDS011;26571;41.610;25.380;2023-05-10T01:59:18;3.63;;;2.90;;
40849;SDS011;26571;41.610;25.380;2023-05-10T02:01:44;4.55;;;2.42;;
40849;SDS011;26571;41.610;25.380;2023-05-10T02:04:12;3.72;;;3.28;;
40849;SDS011;26571;41.610;25.380;2023-05-10T02:06:41;4.53;;;3.42;;
40849;SDS011;26571;41.610;25.380;2023-05-10T02:09:09;3.30;;;3.05;;
40849;SDS011;26571;41.610;25.380;2023-05-10T02:11:37;5.05;;;4.30;;
40849;SDS011;26571;41.610;25.380;2023-05-10T02:14:05;3.95;;;3.50;;
40849;SDS011;26571;41.610;25.380;2023-05-10T02:16:33;4.05;;;3.45;;
40849;SDS011;26571;41.610;25.380;2023-05-10T02:19:00;3.97;;;3.38;;
40849;SDS011;26571;41.610;25.380;2023-05-10T02:21:27;5.60;;;3.38;;
40849;SDS011;26571;41.610;25.380;2023-05-10T02:23:54;6.65;;;6.10;;
40849;SDS011;26571;41.610;25.380;2023-05-10T02:26:20;6.45;;;3.65;;
40849;SDS011;26571;41.610;25.380;2023-05-10T02:28:48;6.43;;;3.67;;
40849;SDS011;26571;41.610;25.380;2023-05-10T02:31:14;5.65;;;4.53;;
40849;SDS011;26571;41.610;25.380;2023-05-10T02:33:40;6.85;;;3.53;;
40849;SDS011;26571;41.610;25.380;2023-05-10T02:36:07;4.97;;;4.22;;
40849;SDS011;26571;41.610;25.380;2023-05-10T02:38:35;3.75;;;3.55;;
40849;SDS011;26571;41.610;25.380;2023-05-10T02:41:01;4.22;;;3.88;;
40849;SDS011;26571;41.610;25.380;2023-05-10T02:43:30;6.07;;;5.28;;
40849;SDS011;26571;41.610;25.380;2023-05-10T02:45:58;5.78;;;4.35;;
40849;SDS011;26571;41.610;25.380;2023-05-10T02:48:23;6.05;;;5.32;;
40849;SDS011;26571;41.610;25.380;2023-05-10T02:50:50;5.32;;;4.00;;
40849;SDS011;26571;41.610;25.380;2023-05-10T02:53:23;5.53;;;4.57;;
40849;SDS011;26571;41.610;25.380;2023-05-10T02:55:57;5.03;;;4.63;;
40849;SDS011;26571;41.610;25.380;2023-05-10T02:58:25;7.60;;;4.53;;
40849;SDS011;26571;41.610;25.380;2023-05-10T03:00:51;4.28;;;3.97;;
40849;SDS011;26571;41.610;25.380;2023-05-10T03:03:17;8.38;;;4.25;;
40849;SDS011;26571;41.610;25.380;2023-05-10T03:05:42;5.20;;;4.13;;
40849;SDS011;26571;41.610;25.380;2023-05-10T03:08:08;5.65;;;5.07;;
40849;SDS011;26571;41.610;25.380;2023-05-10T03:10:33;4.95;;;4.53;;
40849;SDS011;26571;41.610;25.380;2023-05-10T03:13:23;4.38;;;3.97;;
40849;SDS011;26571;41.610;25.380;2023-05-10T03:19:07;5.18;;;3.95;;
40849;SDS011;26571;41.610;25.380;2023-05-10T03:21:35;4.53;;;4.22;;
40849;SDS011;26571;41.610;25.380;2023-05-10T03:26:29;5.80;;;5.18;;
40849;SDS011;26571;41.610;25.380;2023-05-10T03:28:55;4.95;;;4.43;;
40849;SDS011;26571;41.610;25.380;2023-05-10T03:31:23;6.15;;;5.57;;
40849;SDS011;26571;41.610;25.380;2023-05-10T03:33:49;6.10;;;5.57;;
40849;SDS011;26571;41.610;25.380;2023-05-10T03:36:16;5.22;;;4.75;;
40849;SDS011;26571;41.610;25.380;2023-05-10T03:38:42;7.80;;;4.75;;
40849;SDS011;26571;41.610;25.380;2023-05-10T03:41:07;4.90;;;4.65;;
40849;SDS011;26571;41.610;25.380;2023-05-10T03:43:33;7.68;;;5.63;;
40849;SDS011;26571;41.610;25.380;2023-05-10T03:45:58;5.10;;;4.68;;
40849;SDS011;26571;41.610;25.380;2023-05-10T03:48:27;7.00;;;5.40;;
40849;SDS011;26571;41.610;25.380;2023-05-10T03:50:52;5.05;;;4.72;;
40849;SDS011;26571;41.610;25.380;2023-05-10T03:53:17;4.70;;;4.05;;
40849;SDS011;26571;41.610;25.380;2023-05-10T03:55:43;5.03;;;4.72;;
40849;SDS011;26571;41.610;25.380;2023-05-10T03:58:10;7.78;;;5.43;;
40849;SDS011;26571;41.610;25.380;2023-05-10T04:00:36;5.95;;;5.35;;
40849;SDS011;26571;41.610;25.380;2023-05-10T04:03:02;8.30;;;5.50;;
40849;SDS011;26571;41.610;25.380;2023-05-10T04:05:27;6.63;;;5.32;;
40849;SDS011;26571;41.610;25.380;2023-05-10T04:07:53;6.57;;;6.05;;
40849;SDS011;26571;41.610;25.380;2023-05-10T04:10:18;6.20;;;5.65;;
40849;SDS011;26571;41.610;25.380;2023-05-10T04:12:44;7.03;;;5.72;;
40849;SDS011;26571;41.610;25.380;2023-05-10T04:15:09;10.35;;;5.93;;
40849;SDS011;26571;41.610;25.380;2023-05-10T04:17:34;7.15;;;6.65;;
40849;SDS011;26571;41.610;25.380;2023-05-10T04:20:00;5.88;;;5.47;;
40849;SDS011;26571;41.610;25.380;2023-05-10T04:22:25;7.13;;;4.82;;
40849;SDS011;26571;41.610;25.380;2023-05-10T04:24:51;6.78;;;4.68;;
40849;SDS011;26571;41.610;25.380;2023-05-10T04:27:16;5.97;;;5.47;;
40849;SDS011;26571;41.610;25.380;2023-05-10T04:29:42;7.60;;;5.40;;
40849;SDS011;26571;41.610;25.380;2023-05-10T04:32:07;5.25;;;4.82;;
40849;SDS011;26571;41.610;25.380;2023-05-10T04:34:35;5.97;;;5.38;;
40849;SDS011;26571;41.610;25.380;2023-05-10T04:37:01;4.67;;;4.30;;
40849;SDS011;26571;41.610;25.380;2023-05-10T04:39:26;7.03;;;4.88;;
40849;SDS011;26571;41.610;25.380;2023-05-10T04:41:52;7.13;;;5.47;;
40849;SDS011;26571;41.610;25.380;2023-05-10T04:44:17;6.15;;;5.65;;
40849;SDS011;26571;41.610;25.380;2023-05-10T04:46:43;10.07;;;5.93;;
40849;SDS011;26571;41.610;25.380;2023-05-10T04:49:08;7.70;;;5.03;;
40849;SDS011;26571;41.610;25.380;2023-05-10T04:51:34;6.53;;;4.65;;
40849;SDS011;26571;41.610;25.380;2023-05-10T04:53:59;11.15;;;4.90;;
40849;SDS011;26571;41.610;25.380;2023-05-10T04:56:25;7.07;;;5.07;;
40849;SDS011;26571;41.610;25.380;2023-05-10T04:58:50;6.50;;;5.82;;
40849;SDS011;26571;41.610;25.380;2023-05-10T05:01:16;6.00;;;4.70;;
40849;SDS011;26571;41.610;25.380;2023-05-10T05:03:42;4.72;;;4.30;;
40849;SDS011;26571;41.610;25.380;2023-05-10T05:06:07;5.65;;;4.32;;
40849;SDS011;26571;41.610;25.380;2023-05-10T05:08:32;6.22;;;5.43;;
40849;SDS011;26571;41.610;25.380;2023-05-10T05:10:58;7.82;;;4.78;;
40849;SDS011;26571;41.610;25.380;2023-05-10T05:13:24;5.80;;;4.60;;
40849;SDS011;26571;41.610;25.380;2023-05-10T05:15:49;3.85;;;3.55;;
40849;SDS011;26571;41.610;25.380;2023-05-10T05:18:15;5.82;;;3.83;;
40849;SDS011;26571;41.610;25.380;2023-05-10T05:20:40;4.80;;;3.88;;
40849;SDS011;26571;41.610;25.380;2023-05-10T05:23:06;6.35;;;4.00;;
40849;SDS011;26571;41.610;25.380;2023-05-10T05:25:31;6.70;;;3.90;;
40849;SDS011;26571;41.610;25.380;2023-05-10T05:27:56;4.13;;;3.75;;
40849;SDS011;26571;41.610;25.380;2023-05-10T05:30:22;4.32;;;4.03;;
40849;SDS011;26571;41.610;25.380;2023-05-10T05:32:47;4.78;;;3.50;;
40849;SDS011;26571;41.610;25.380;2023-05-10T05:35:13;5.00;;;3.65;;
40849;SDS011;26571;41.610;25.380;2023-05-10T05:37:38;5.30;;;3.90;;
40849;SDS011;26571;41.610;25.380;2023-05-10T05:40:04;4.40;;;4.00;;
40849;SDS011;26571;41.610;25.380;2023-05-10T05:42:30;8.03;;;4.23;;
40849;SDS011;26571;41.610;25.380;2023-05-10T05:44:56;5.07;;;4.35;;
40849;SDS011;26571;41.610;25.380;2023-05-10T05:47:21;8.80;;;8.05;;
40849;SDS011;26571;41.610;25.380;2023-05-10T05:49:47;4.90;;;4.45;;
40849;SDS011;26571;41.610;25.380;2023-05-10T05:52:12;9.05;;;4.90;;
40849;SDS011;26571;41.610;25.380;2023-05-10T05:54:38;13.00;;;10.45;;
40849;SDS011;26571;41.610;25.380;2023-05-10T05:57:04;10.88;;;7.82;;
40849;SDS011;26571;41.610;25.380;2023-05-10T05:59:29;4.43;;;3.28;;
40849;SDS011;26571;41.610;25.380;2023-05-10T06:01:54;3.58;;;3.28;;
40849;SDS011;26571;41.610;25.380;2023-05-10T06:04:20;3.50;;;3.30;;
40849;SDS011;26571;41.610;25.380;2023-05-10T06:06:45;6.15;;;4.75;;
40849;SDS011;26571;41.610;25.380;2023-05-10T06:09:11;7.30;;;3.25;;
40849;SDS011;26571;41.610;25.380;2023-05-10T06:11:37;3.55;;;3.22;;
40849;SDS011;26571;41.610;25.380;2023-05-10T06:14:03;4.55;;;4.18;;
40849;SDS011;26571;41.610;25.380;2023-05-10T06:16:29;2.67;;;2.47;;
40849;SDS011;26571;41.610;25.380;2023-05-10T06:18:55;2.35;;;1.70;;
40849;SDS011;26571;41.610;25.380;2023-05-10T06:21:21;2.75;;;2.25;;
40849;SDS011;26571;41.610;25.380;2023-05-10T06:23:46;4.75;;;2.60;;
40849;SDS011;26571;41.610;25.380;2023-05-10T06:26:12;2.47;;;1.30;;
40849;SDS011;26571;41.610;25.380;2023-05-10T06:28:38;6.17;;;1.70;;
40849;SDS011;26571;41.610;25.380;2023-05-10T06:31:04;5.35;;;2.10;;
40849;SDS011;26571;41.610;25.380;2023-05-10T06:33:30;4.47;;;3.03;;
40849;SDS011;26571;41.610;25.380;2023-05-10T06:35:56;4.72;;;2.22;;
40849;SDS011;26571;41.610;25.380;2023-05-10T06:38:22;2.53;;;1.50;;
40849;SDS011;26571;41.610;25.380;2023-05-10T06:40:47;3.72;;;1.83;;
40849;SDS011;26571;41.610;25.380;2023-05-10T06:43:13;3.13;;;2.25;;
40849;SDS011;26571;41.610;25.380;2023-05-10T06:45:38;1.52;;;1.42;;
40849;SDS011;26571;41.610;25.380;2023-05-10T06:48:04;6.97;;;2.42;;
40849;SDS011;26571;41.610;25.380;2023-05-10T06:50:29;2.15;;;1.70;;
40849;SDS011;26571;41.610;25.380;2023-05-10T06:52:55;4.15;;;1.30;;
40849;SDS011;26571;41.610;25.380;2023-05-10T06:55:20;1.85;;;1.65;;
40849;SDS011;26571;41.610;25.380;2023-05-10T06:57:46;4.93;;;1.98;;
40849;SDS011;26571;41.610;25.380;2023-05-10T07:00:12;6.20;;;3.00;;
40849;SDS011;26571;41.610;25.380;2023-05-10T07:02:38;6.70;;;3.88;;
40849;SDS011;26571;41.610;25.380;2023-05-10T07:05:04;4.82;;;4.30;;
40849;SDS011;26571;41.610;25.380;2023-05-10T07:07:30;6.13;;;3.10;;
40849;SDS011;26571;41.610;25.380;2023-05-10T07:09:56;7.60;;;4.07;;
40849;SDS011;26571;41.610;25.380;2023-05-10T07:12:22;3.38;;;2.17;;
40849;SDS011;26571;41.610;25.380;2023-05-10T07:14:48;2.72;;;2.00;;
40849;SDS011;26571;41.610;25.380;2023-05-10T07:17:13;1.00;;;0.98;;
40849;SDS011;26571;41.610;25.380;2023-05-10T07:19:39;3.33;;;1.83;;
40849;SDS011;26571;41.610;25.380;2023-05-10T07:22:04;3.55;;;1.30;;
40849;SDS011;26571;41.610;25.380;2023-05-10T07:24:30;4.05;;;1.25;;
40849;SDS011;26571;41.610;25.380;2023-05-10T07:26:57;1.70;;;1.10;;
40849;SDS011;26571;41.610;25.380;2023-05-10T07:29:22;2.95;;;1.52;;
40849;SDS011;26571;41.610;25.380;2023-05-10T07:31:47;1.38;;;1.15;;
40849;SDS011;26571;41.610;25.380;2023-05-10T07:34:13;4.30;;;1.38;;
40849;SDS011;26571;41.610;25.380;2023-05-10T07:36:38;3.42;;;1.42;;
40849;SDS011;26571;41.610;25.380;2023-05-10T07:39:04;3.53;;;1.25;;
40849;SDS011;26571;41.610;25.380;2023-05-10T07:41:29;3.58;;;2.00;;
40849;SDS011;26571;41.610;25.380;2023-05-10T07:43:55;3.03;;;1.05;;
40849;SDS011;26571;41.610;25.380;2023-05-10T07:46:20;5.65;;;1.42;;
40849;SDS011;26571;41.610;25.380;2023-05-10T07:48:46;2.72;;;0.88;;
40849;SDS011;26571;41.610;25.380;2023-05-10T07:51:11;0.90;;;0.65;;
40849;SDS011;26571;41.610;25.380;2023-05-10T07:53:37;2.10;;;0.93;;
40849;SDS011;26571;41.610;25.380;2023-05-10T07:56:48;3.23;;;0.80;;
40849;SDS011;26571;41.610;25.380;2023-05-10T07:58:54;3.75;;;1.17;;
40849;SDS011;26571;41.610;25.380;2023-05-10T08:01:21;0.90;;;0.90;;
40849;SDS011;26571;41.610;25.380;2023-05-10T08:03:47;1.97;;;0.77;;
40849;SDS011;26571;41.610;25.380;2023-05-10T08:06:14;3.22;;;1.23;;
40849;SDS011;26571;41.610;25.380;2023-05-10T08:08:40;2.15;;;0.80;;
40849;SDS011;26571;41.610;25.380;2023-05-10T08:11:06;1.80;;;1.08;;
40849;SDS011;26571;41.610;25.380;2023-05-10T08:13:31;2.92;;;1.10;;
40849;SDS011;26571;41.610;25.380;2023-05-10T08:15:57;3.78;;;1.77;;
40849;SDS011;26571;41.610;25.380;2023-05-10T08:18:22;2.55;;;1.48;;
40849;SDS011;26571;41.610;25.380;2023-05-10T08:20:47;1.25;;;1.00;;
40849;SDS011;26571;41.610;25.380;2023-05-10T08:23:13;3.47;;;1.80;;
40849;SDS011;26571;41.610;25.380;2023-05-10T08:25:38;5.70;;;2.45;;
40849;SDS011;26571;41.610;25.380;2023-05-10T08:28:04;2.15;;;1.25;;
40849;SDS011;26571;41.610;25.380;2023-05-10T08:30:29;1.17;;;1.17;;
40849;SDS011;26571;41.610;25.380;2023-05-10T08:32:55;1.45;;;1.30;;
40849;SDS011;26571;41.610;25.380;2023-05-10T08:35:20;2.17;;;1.63;;
40849;SDS011;26571;41.610;25.380;2023-05-10T08:37:46;1.88;;;1.77;;
40849;SDS011;26571;41.610;25.380;2023-05-10T08:40:11;3.67;;;1.30;;
40849;SDS011;26571;41.610;25.380;2023-05-10T08:42:39;3.35;;;2.15;;
40849;SDS011;26571;41.610;25.380;2023-05-10T08:45:07;1.75;;;1.10;;
40849;SDS011;26571;41.610;25.380;2023-05-10T08:47:35;5.90;;;2.92;;
40849;SDS011;26571;41.610;25.380;2023-05-10T08:50:03;18.17;;;9.77;;
40849;SDS011;26571;41.610;25.380;2023-05-10T08:52:29;2.70;;;1.25;;
40849;SDS011;26571;41.610;25.380;2023-05-10T08:54:57;4.68;;;2.55;;
40849;SDS011;26571;41.610;25.380;2023-05-10T08:57:23;4.70;;;1.52;;
40849;SDS011;26571;41.610;25.380;2023-05-10T08:59:49;3.22;;;2.67;;
40849;SDS011;26571;41.610;25.380;2023-05-10T09:02:14;3.10;;;2.83;;
40849;SDS011;26571;41.610;25.380;2023-05-10T09:04:41;1.90;;;1.80;;
40849;SDS011;26571;41.610;25.380;2023-05-10T09:07:07;1.40;;;1.30;;
40849;SDS011;26571;41.610;25.380;2023-05-10T09:09:32;4.20;;;3.58;;
40849;SDS011;26571;41.610;25.380;2023-05-10T09:11:58;2.63;;;2.42;;
40849;SDS011;26571;41.610;25.380;2023-05-10T09:14:24;4.57;;;4.22;;
40849;SDS011;26571;41.610;25.380;2023-05-10T09:16:50;6.10;;;3.67;;
40849;SDS011;26571;41.610;25.380;2023-05-10T09:19:16;1.83;;;1.75;;
40849;SDS011;26571;41.610;25.380;2023-05-10T09:21:42;3.08;;;2.78;;
40849;SDS011;26571;41.610;25.380;2023-05-10T09:24:08;1.88;;;1.50;;
40849;SDS011;26571;41.610;25.380;2023-05-10T09:26:34;2.15;;;1.95;;
40849;SDS011;26571;41.610;25.380;2023-05-10T09:29:00;4.35;;;3.97;;
40849;SDS011;26571;41.610;25.380;2023-05-10T09:34:15;2.70;;;1.30;;
40849;SDS011;26571;41.610;25.380;2023-05-10T09:36:52;2.17;;;1.45;;
40849;SDS011;26571;41.610;25.380;2023-05-10T09:39:19;2.85;;;1.05;;
40849;SDS011;26571;41.610;25.380;2023-05-10T09:41:45;3.97;;;2.20;;
40849;SDS011;26571;41.610;25.380;2023-05-10T09:44:14;5.93;;;0.90;;
40849;SDS011;26571;41.610;25.380;2023-05-10T09:46:42;4.20;;;0.80;;
40849;SDS011;26571;41.610;25.380;2023-05-10T09:49:08;1.88;;;0.65;;
40849;SDS011;26571;41.610;25.380;2023-05-10T09:51:34;3.28;;;1.38;;
40849;SDS011;26571;41.610;25.380;2023-05-10T09:56:36;1.00;;;0.77;;
40849;SDS011;26571;41.610;25.380;2023-05-10T09:59:04;1.13;;;0.73;;
40849;SDS011;26571;41.610;25.380;2023-05-10T10:01:30;2.75;;;0.60;;
40849;SDS011;26571;41.610;25.380;2023-05-10T10:03:56;1.67;;;0.60;;
40849;SDS011;26571;41.610;25.380;2023-05-10T10:06:23;0.70;;;0.40;;
40849;SDS011;26571;41.610;25.380;2023-05-10T10:08:49;0.70;;;0.60;;
40849;SDS011;26571;41.610;25.380;2023-05-10T10:11:16;1.17;;;0.90;;
40849;SDS011;26571;41.610;25.380;2023-05-10T10:13:41;2.97;;;1.52;;
40849;SDS011;26571;41.610;25.380;2023-05-10T10:16:08;0.93;;;0.88;;
40849;SDS011;26571;41.610;25.380;2023-05-10T10:18:34;4.63;;;0.50;;
40849;SDS011;26571;41.610;25.380;2023-05-10T10:21:03;2.53;;;1.63;;
40849;SDS011;26571;41.610;25.380;2023-05-10T10:23:30;0.88;;;0.75;;
40849;SDS011;26571;41.610;25.380;2023-05-10T10:25:56;0.98;;;0.50;;
40849;SDS011;26571;41.610;25.380;2023-05-10T10:28:24;1.20;;;0.50;;
40849;SDS011;26571;41.610;25.380;2023-05-10T10:31:01;1.02;;;0.60;;
40849;SDS011;26571;41.610;25.380;2023-05-10T10:36:28;0.98;;;0.90;;
40849;SDS011;26571;41.610;25.380;2023-05-10T10:38:54;1.48;;;0.40;;
40849;SDS011;26571;41.610;25.380;2023-05-10T10:41:33;1.27;;;0.80;;
40849;SDS011;26571;41.610;25.380;2023-05-10T10:57:42;3.25;;;1.27;;
40849;SDS011;26571;41.610;25.380;2023-05-10T11:00:27;2.45;;;1.95;;
40849;SDS011;26571;41.610;25.380;2023-05-10T11:02:57;3.70;;;1.05;;
40849;SDS011;26571;41.610;25.380;2023-05-10T11:05:25;1.25;;;0.73;;
40849;SDS011;26571;41.610;25.380;2023-05-10T11:07:59;1.60;;;1.50;;
40849;SDS011;26571;41.610;25.380;2023-05-10T11:10:26;7.57;;;2.88;;
40849;SDS011;26571;41.610;25.380;2023-05-10T11:12:52;1.27;;;1.17;;
40849;SDS011;26571;41.610;25.380;2023-05-10T11:15:37;1.27;;;1.17;;
40849;SDS011;26571;41.610;25.380;2023-05-10T11:18:20;1.38;;;0.80;;
40849;SDS011;26571;41.610;25.380;2023-05-10T11:20:52;1.55;;;0.75;;
40849;SDS011;26571;41.610;25.380;2023-05-10T11:23:17;0.80;;;0.80;;
40849;SDS011;26571;41.610;25.380;2023-05-10T11:25:44;0.63;;;0.60;;
40849;SDS011;26571;41.610;25.380;2023-05-10T11:28:11;0.60;;;0.60;;
40849;SDS011;26571;41.610;25.380;2023-05-10T11:30:40;3.17;;;0.60;;
40849;SDS011;26571;41.610;25.380;2023-05-10T11:33:07;1.48;;;0.50;;
40849;SDS011;26571;41.610;25.380;2023-05-10T11:35:40;2.10;;;0.77;;
40849;SDS011;26571;41.610;25.380;2023-05-10T11:38:06;2.80;;;0.70;;
40849;SDS011;26571;41.610;25.380;2023-05-10T11:40:33;2.90;;;1.13;;
40849;SDS011;26571;41.610;25.380;2023-05-10T11:42:58;0.50;;;0.50;;
40849;SDS011;26571;41.610;25.380;2023-05-10T11:45:24;1.95;;;1.00;;
40849;SDS011;26571;41.610;25.380;2023-05-10T11:47:51;0.88;;;0.50;;
40849;SDS011;26571;41.610;25.380;2023-05-10T11:50:17;2.60;;;0.90;;
40849;SDS011;26571;41.610;25.380;2023-05-10T11:52:42;2.13;;;0.85;;
40849;SDS011;26571;41.610;25.380;2023-05-10T11:55:08;1.58;;;0.80;;
40849;SDS011;26571;41.610;25.380;2023-05-10T11:57:34;0.88;;;0.40;;
40849;SDS011;26571;41.610;25.380;2023-05-10T12:00:03;3.40;;;0.40;;
40849;SDS011;26571;41.610;25.380;2023-05-10T12:02:29;0.50;;;0.50;;
40849;SDS011;26571;41.610;25.380;2023-05-10T12:04:55;2.05;;;0.50;;
40849;SDS011;26571;41.610;25.380;2023-05-10T12:07:21;2.30;;;0.43;;
40849;SDS011;26571;41.610;25.380;2023-05-10T12:12:51;1.65;;;0.40;;
40849;SDS011;26571;41.610;25.380;2023-05-10T12:15:18;4.33;;;1.23;;
40849;SDS011;26571;41.610;25.380;2023-05-10T12:17:45;2.90;;;0.98;;
40849;SDS011;26571;41.610;25.380;2023-05-10T12:22:44;5.07;;;0.70;;
40849;SDS011;26571;41.610;25.380;2023-05-10T12:25:14;2.13;;;0.80;;
40849;SDS011;26571;41.610;25.380;2023-05-10T12:27:39;0.85;;;0.85;;
40849;SDS011;26571;41.610;25.380;2023-05-10T12:30:05;2.60;;;0.55;;
40849;SDS011;26571;41.610;25.380;2023-05-10T12:32:40;2.95;;;1.10;;
40849;SDS011;26571;41.610;25.380;2023-05-10T12:35:06;1.42;;;0.52;;
40849;SDS011;26571;41.610;25.380;2023-05-10T12:37:33;0.70;;;0.47;;
40849;SDS011;26571;41.610;25.380;2023-05-10T12:40:04;8.02;;;1.80;;
40849;SDS011;26571;41.610;25.380;2023-05-10T12:42:31;2.15;;;1.95;;
40849;SDS011;26571;41.610;25.380;2023-05-10T12:44:57;1.70;;;1.10;;
40849;SDS011;26571;41.610;25.380;2023-05-10T12:47:22;1.30;;;0.82;;
40849;SDS011;26571;41.610;25.380;2023-05-10T12:49:48;2.28;;;0.57;;
40849;SDS011;26571;41.610;25.380;2023-05-10T12:52:13;0.60;;;0.60;;
40849;SDS011;26571;41.610;25.380;2023-05-10T12:54:38;0.70;;;0.70;;
40849;SDS011;26571;41.610;25.380;2023-05-10T12:57:04;2.63;;;0.60;;
40849;SDS011;26571;41.610;25.380;2023-05-10T12:59:29;1.70;;;1.08;;
40849;SDS011;26571;41.610;25.380;2023-05-10T13:01:56;2.25;;;0.52;;
40849;SDS011;26571;41.610;25.380;2023-05-10T13:06:47;1.58;;;0.60;;
40849;SDS011;26571;41.610;25.380;2023-05-10T13:09:13;0.40;;;0.40;;
40849;SDS011;26571;41.610;25.380;2023-05-10T13:11:38;2.53;;;0.63;;
40849;SDS011;26571;41.610;25.380;2023-05-10T13:14:04;0.88;;;0.50;;
40849;SDS011;26571;41.610;25.380;2023-05-10T13:16:29;2.10;;;0.60;;
40849;SDS011;26571;41.610;25.380;2023-05-10T13:18:56;2.37;;;0.50;;
40849;SDS011;26571;41.610;25.380;2023-05-10T13:21:21;0.60;;;0.60;;
40849;SDS011;26571;41.610;25.380;2023-05-10T13:23:47;5.03;;;0.50;;
40849;SDS011;26571;41.610;25.380;2023-05-10T13:26:12;2.05;;;0.50;;
40849;SDS011;26571;41.610;25.380;2023-05-10T13:28:38;3.38;;;1.17;;
40849;SDS011;26571;41.610;25.380;2023-05-10T13:31:03;0.60;;;0.60;;
40849;SDS011;26571;41.610;25.380;2023-05-10T13:33:29;0.60;;;0.60;;
40849;SDS011;26571;41.610;25.380;2023-05-10T13:35:55;0.73;;;0.40;;
40849;SDS011;26571;41.610;25.380;2023-05-10T13:38:20;0.50;;;0.50;;
40849;SDS011;26571;41.610;25.380;2023-05-10T13:40:46;4.53;;;1.00;;
40849;SDS011;26571;41.610;25.380;2023-05-10T13:43:11;2.42;;;0.50;;
40849;SDS011;26571;41.610;25.380;2023-05-10T13:45:37;3.15;;;1.60;;
40849;SDS011;26571;41.610;25.380;2023-05-10T13:48:02;1.00;;;0.77;;
40849;SDS011;26571;41.610;25.380;2023-05-10T13:50:28;0.77;;;0.60;;
40849;SDS011;26571;41.610;25.380;2023-05-10T13:52:53;3.60;;;0.85;;
40849;SDS011;26571;41.610;25.380;2023-05-10T13:55:18;2.03;;;0.35;;
40849;SDS011;26571;41.610;25.380;2023-05-10T13:57:44;3.10;;;1.25;;
40849;SDS011;26571;41.610;25.380;2023-05-10T14:00:09;13.15;;;2.03;;
40849;SDS011;26571;41.610;25.380;2023-05-10T14:02:35;7.88;;;4.05;;
40849;SDS011;26571;41.610;25.380;2023-05-10T14:05:01;3.22;;;2.80;;
40849;SDS011;26571;41.610;25.380;2023-05-10T14:07:26;9.98;;;5.35;;
40849;SDS011;26571;41.610;25.380;2023-05-10T14:09:52;2.42;;;1.20;;
40849;SDS011;26571;41.610;25.380;2023-05-10T14:12:17;4.65;;;1.20;;
40849;SDS011;26571;41.610;25.380;2023-05-10T14:14:43;3.17;;;1.42;;
40849;SDS011;26571;41.610;25.380;2023-05-10T14:17:08;0.98;;;0.70;;
40849;SDS011;26571;41.610;25.380;2023-05-10T14:19:33;0.73;;;0.70;;
40849;SDS011;26571;41.610;25.380;2023-05-10T14:21:59;1.58;;;0.68;;
40849;SDS011;26571;41.610;25.380;2023-05-10T14:24:25;1.42;;;0.60;;
40849;SDS011;26571;41.610;25.380;2023-05-10T14:26:50;1.15;;;0.70;;
40849;SDS011;26571;41.610;25.380;2023-05-10T14:29:18;1.30;;;0.40;;
40849;SDS011;26571;41.610;25.380;2023-05-10T14:31:44;3.60;;;0.88;;
40849;SDS011;26571;41.610;25.380;2023-05-10T14:34:09;1.75;;;0.80;;
40849;SDS011;26571;41.610;25.380;2023-05-10T14:36:35;1.75;;;0.93;;
40849;SDS011;26571;41.610;25.380;2023-05-10T14:39:00;2.65;;;0.80;;
40849;SDS011;26571;41.610;25.380;2023-05-10T14:41:26;4.45;;;1.00;;
40849;SDS011;26571;41.610;25.380;2023-05-10T14:43:51;1.55;;;0.52;;
40849;SDS011;26571;41.610;25.380;2023-05-10T14:46:17;0.98;;;0.88;;
40849;SDS011;26571;41.610;25.380;2023-05-10T14:48:43;2.28;;;0.60;;
40849;SDS011;26571;41.610;25.380;2023-05-10T14:51:08;2.40;;;0.50;;
40849;SDS011;26571;41.610;25.380;2023-05-10T14:53:33;1.38;;;1.30;;
40849;SDS011;26571;41.610;25.380;2023-05-10T14:55:59;1.38;;;0.60;;
40849;SDS011;26571;41.610;25.380;2023-05-10T14:58:26;2.78;;;0.65;;
40849;SDS011;26571;41.610;25.380;2023-05-10T15:00:52;1.83;;;1.27;;
40849;SDS011;26571;41.610;25.380;2023-05-10T15:03:17;3.00;;;1.40;;
40849;SDS011;26571;41.610;25.380;2023-05-10T15:05:43;2.80;;;2.03;;
40849;SDS011;26571;41.610;25.380;2023-05-10T15:08:08;1.55;;;0.80;;
40849;SDS011;26571;41.610;25.380;2023-05-10T15:10:34;7.55;;;3.55;;
40849;SDS011;26571;41.610;25.380;2023-05-10T15:13:00;7.88;;;5.82;;
40849;SDS011;26571;41.610;25.380;2023-05-10T15:15:26;4.47;;;1.88;;
40849;SDS011;26571;41.610;25.380;2023-05-10T15:17:51;3.80;;;1.15;;